Time;durP1;ratioP1;P1;durP2;ratioP2;P2;SDS_P1;SDS_P2;PMS_P1;PMS_P2;Temp;Humidity;BMP_temperature;BMP_pressure;BME280_temperature;BME280_humidity;BME280_pressure;Samples;Min_cycle;Max_cycle;Signal;HPM_P1;HPM_P2
2022/01/10 00:00:23;;;;;;;31.42;6.35;;;2.50;99.90;;;;;;4993205;28;62088;-83
2022/01/10 00:02:55;;;;;;;35.67;7.18;;;2.50;99.90;;;;;;5009251;28;20077;-82
2022/01/10 00:05:21;;;;;;;33.03;6.70;;;2.50;99.90;;;;;;4948883;28;273974;-83
2022/01/10 00:07:49;;;;;;;27.27;6.50;;;2.50;99.90;;;;;;5023296;28;20057;-81
2022/01/10 00:10:15;;;;;;;30.15;6.35;;;2.50;99.90;;;;;;4978798;28;192773;-82
2022/01/10 00:12:42;;;;;;;29.05;6.70;;;2.50;99.90;;;;;;4986170;28;20056;-83
2022/01/10 00:15:09;;;;;;;33.63;6.70;;;2.40;99.90;;;;;;4972513;28;189161;-81
2022/01/10 00:17:38;;;;;;;28.63;6.95;;;2.40;99.90;;;;;;4993689;28;20049;-84
2022/01/10 00:20:13;;;;;;;30.23;6.97;;;2.30;99.90;;;;;;4989010;28;24053;-82
2022/01/10 00:22:46;;;;;;;29.55;6.28;;;2.30;99.90;;;;;;5000765;28;20049;-83
2022/01/10 00:25:13;;;;;;;32.28;6.55;;;2.30;99.90;;;;;;4997016;28;86233;-82
2022/01/10 00:27:40;;;;;;;34.55;6.80;;;2.30;99.90;;;;;;5005600;28;20053;-80
2022/01/10 00:30:07;;;;;;;31.95;6.70;;;2.30;99.90;;;;;;5010634;28;39142;-81
2022/01/10 00:32:33;;;;;;;32.97;6.85;;;2.30;99.90;;;;;;5006992;28;20060;-81
2022/01/10 00:34:59;;;;;;;31.45;6.70;;;2.20;99.90;;;;;;4997689;28;55745;-81
2022/01/10 00:37:26;;;;;;;34.38;6.97;;;2.20;99.90;;;;;;5008128;28;20046;-82
2022/01/10 00:39:52;;;;;;;45.30;6.75;;;2.20;99.90;;;;;;4975693;28;127368;-82
2022/01/10 00:42:18;;;;;;;36.45;7.68;;;2.10;99.90;;;;;;4988814;28;20054;-82
2022/01/10 00:44:50;;;;;;;42.33;7.43;;;2.10;99.90;;;;;;4987076;28;111259;-82
2022/01/10 00:47:17;;;;;;;30.13;7.47;;;2.10;99.90;;;;;;5002390;28;20568;-82
2022/01/10 00:49:44;;;;;;;31.08;7.47;;;2.10;99.90;;;;;;4972554;28;153093;-80
2022/01/10 00:52:10;;;;;;;33.92;7.53;;;2.00;99.90;;;;;;5004669;28;20057;-83
2022/01/10 00:54:37;;;;;;;31.48;8.23;;;2.00;99.90;;;;;;4980000;28;31807;-83
2022/01/10 00:57:03;;;;;;;35.72;8.07;;;2.10;99.90;;;;;;5004348;28;20045;-82
2022/01/10 00:59:30;;;;;;;28.02;7.85;;;2.00;99.90;;;;;;4986661;28;20049;-83
2022/01/10 01:01:56;;;;;;;37.33;8.35;;;2.00;99.90;;;;;;4994801;28;20060;-82
2022/01/10 01:04:23;;;;;;;30.52;7.88;;;2.00;99.90;;;;;;4958320;28;209829;-83
2022/01/10 01:06:49;;;;;;;34.53;8.20;;;2.00;99.90;;;;;;4985716;28;20053;-81
2022/01/10 01:09:19;;;;;;;31.95;8.43;;;1.90;99.90;;;;;;4990526;28;83539;-80
2022/01/10 01:15:18;;;;;;;35.92;8.55;;;1.90;99.90;;;;;;5001469;28;209091;-82
2022/01/10 01:17:34;;;;;;;33.33;8.63;;;1.90;99.90;;;;;;4999704;28;20409;-82
2022/01/10 01:20:28;;;;;;;37.03;9.05;;;1.80;99.90;;;;;;4966700;28;213885;-82
2022/01/10 01:25:37;;;;;;;37.38;9.35;;;1.70;99.90;;;;;;4989686;28;49860;-81
2022/01/10 01:28:04;;;;;;;39.88;10.00;;;1.70;99.90;;;;;;5002508;28;20168;-80
2022/01/10 01:30:30;;;;;;;34.97;9.45;;;1.70;99.90;;;;;;4982970;28;245414;-80
2022/01/10 01:32:58;;;;;;;39.00;10.27;;;1.70;99.90;;;;;;4990702;28;20072;-80
2022/01/10 01:35:25;;;;;;;38.55;10.50;;;1.70;99.90;;;;;;4995180;28;20433;-79
2022/01/10 01:37:51;;;;;;;42.08;10.40;;;1.70;99.90;;;;;;4988914;28;20053;-80
2022/01/10 01:40:20;;;;;;;36.35;10.48;;;1.70;99.90;;;;;;4983816;28;186511;-80
2022/01/10 01:42:47;;;;;;;38.55;10.25;;;1.70;99.90;;;;;;4989105;28;20065;-80
2022/01/10 01:45:15;;;;;;;40.83;11.35;;;1.70;99.90;;;;;;4979994;28;48074;-79
2022/01/10 01:47:43;;;;;;;44.28;11.65;;;1.70;99.90;;;;;;5011265;28;20057;-80
2022/01/10 01:50:10;;;;;;;41.60;12.20;;;1.70;99.90;;;;;;5011424;28;169276;-80
2022/01/10 01:52:36;;;;;;;40.45;12.23;;;1.70;99.90;;;;;;5016917;28;20072;-81
2022/01/10 01:55:04;;;;;;;42.35;12.95;;;1.60;99.90;;;;;;4998743;28;107863;-80
2022/01/10 01:57:31;;;;;;;42.53;11.35;;;1.60;99.90;;;;;;4991884;28;20417;-81
2022/01/10 01:59:57;;;;;;;40.65;12.77;;;1.60;99.90;;;;;;4988603;28;24202;-81
2022/01/10 02:02:23;;;;;;;40.55;12.02;;;1.50;99.90;;;;;;4999742;28;20084;-80
2022/01/10 02:04:49;;;;;;;41.80;11.60;;;1.50;99.90;;;;;;4973168;28;111410;-81
2022/01/10 02:07:17;;;;;;;33.33;11.52;;;1.50;99.90;;;;;;4999771;28;20072;-81
2022/01/10 02:09:43;;;;;;;41.33;10.95;;;1.40;99.90;;;;;;4969028;28;249350;-81
2022/01/10 02:12:09;;;;;;;45.38;12.02;;;1.40;99.90;;;;;;5002845;28;20129;-81
2022/01/10 02:14:36;;;;;;;39.38;11.15;;;1.30;99.90;;;;;;4974473;28;141511;-81
2022/01/10 02:17:04;;;;;;;34.53;10.45;;;1.20;99.90;;;;;;4991464;28;20060;-81
2022/01/10 02:19:31;;;;;;;35.60;11.27;;;1.20;99.90;;;;;;4989890;28;160502;-81
2022/01/10 02:21:57;;;;;;;42.15;11.23;;;1.10;99.90;;;;;;5007447;28;20057;-81
2022/01/10 02:24:23;;;;;;;40.25;11.95;;;1.10;99.90;;;;;;4983346;28;121097;-81
2022/01/10 02:26:50;;;;;;;40.88;13.15;;;1.00;99.90;;;;;;4990924;28;20068;-81
2022/01/10 02:29:17;;;;;;;36.65;12.65;;;1.00;99.90;;;;;;4993849;28;211530;-81
2022/01/10 02:31:44;;;;;;;49.53;12.82;;;1.00;99.90;;;;;;4997165;28;20080;-79
2022/01/10 02:34:11;;;;;;;39.30;12.40;;;1.00;99.90;;;;;;4979042;28;182556;-80
2022/01/10 02:36:37;;;;;;;43.85;12.57;;;1.00;99.90;;;;;;4990189;28;20471;-80
2022/01/10 02:39:08;;;;;;;55.45;14.18;;;0.90;99.90;;;;;;4988500;28;247180;-80
2022/01/10 02:41:40;;;;;;;41.83;14.13;;;0.90;99.90;;;;;;4994350;28;20060;-80
2022/01/10 02:44:09;;;;;;;55.55;13.20;;;0.90;99.90;;;;;;4988394;28;227668;-80
2022/01/10 02:46:37;;;;;;;48.22;13.20;;;0.90;99.90;;;;;;5002365;28;20063;-80
2022/01/10 02:49:15;;;;;;;46.40;14.07;;;0.90;99.90;;;;;;4997817;28;31837;-80
2022/01/10 02:51:42;;;;;;;56.67;14.85;;;0.90;99.90;;;;;;5012258;28;20045;-80
2022/01/10 02:54:08;;;;;;;52.60;15.13;;;0.80;99.90;;;;;;4982195;28;40160;-79
2022/01/10 02:56:45;;;;;;;50.58;15.15;;;0.90;99.90;;;;;;5006458;28;20067;-81
2022/01/10 02:59:11;;;;;;;46.63;15.05;;;0.90;99.90;;;;;;4968767;28;279182;-80
2022/01/10 03:01:37;;;;;;;52.53;15.02;;;0.90;99.90;;;;;;4987370;28;20061;-80
2022/01/10 03:04:03;;;;;;;51.42;16.70;;;1.00;99.90;;;;;;4974632;28;146814;-80
2022/01/10 03:06:29;;;;;;;55.20;16.45;;;1.00;99.90;;;;;;4989246;28;20262;-80
2022/01/10 03:08:55;;;;;;;55.10;16.50;;;1.00;99.90;;;;;;4985684;28;263183;-81
2022/01/10 03:11:21;;;;;;;60.55;17.38;;;1.00;99.90;;;;;;5006645;28;20422;-80
2022/01/10 03:13:48;;;;;;;53.97;16.73;;;1.10;99.90;;;;;;4987252;28;269476;-80
2022/01/10 03:16:14;;;;;;;51.55;16.70;;;1.10;99.90;;;;;;5007736;28;20060;-80
2022/01/10 03:18:41;;;;;;;63.20;17.58;;;1.10;99.90;;;;;;4984034;28;266238;-79
2022/01/10 03:21:07;;;;;;;54.30;16.08;;;1.10;99.90;;;;;;5001661;28;20377;-79
2022/01/10 03:23:33;;;;;;;51.38;17.13;;;1.10;99.90;;;;;;5000575;28;20046;-79
2022/01/10 03:25:59;;;;;;;48.90;17.42;;;1.10;99.90;;;;;;4983839;28;175665;-79
2022/01/10 03:28:25;;;;;;;55.50;16.75;;;1.10;99.90;;;;;;4991390;28;20037;-79
2022/01/10 03:30:51;;;;;;;52.50;16.90;;;1.10;99.90;;;;;;5003511;28;20065;-79
2022/01/10 03:33:17;;;;;;;46.70;16.23;;;1.10;99.90;;;;;;4999236;28;20057;-79
2022/01/10 03:35:44;;;;;;;63.30;16.63;;;1.00;99.90;;;;;;4993466;28;223130;-79
2022/01/10 03:38:10;;;;;;;46.38;14.68;;;1.00;99.90;;;;;;5008779;28;20049;-80
2022/01/10 03:40:36;;;;;;;57.05;16.17;;;0.90;99.90;;;;;;4974672;28;34215;-79
2022/01/10 03:43:02;;;;;;;62.05;16.77;;;0.90;99.90;;;;;;5020566;28;20073;-79
2022/01/10 03:45:29;;;;;;;43.90;16.25;;;0.90;99.90;;;;;;4993589;28;210717;-79
2022/01/10 03:47:55;;;;;;;61.53;17.50;;;0.90;99.90;;;;;;5021363;22;20072;-69
2022/01/10 03:50:21;;;;;;;64.35;18.02;;;0.90;99.90;;;;;;5018375;28;261739;-69
2022/01/10 03:52:47;;;;;;;51.75;17.75;;;0.90;99.90;;;;;;5021194;28;20045;-68
2022/01/10 03:55:13;;;;;;;53.15;18.30;;;0.90;99.90;;;;;;4987937;28;252172;-68
2022/01/10 03:57:39;;;;;;;62.38;17.83;;;0.90;99.90;;;;;;5003283;28;20053;-68
2022/01/10 04:00:08;;;;;;;56.22;17.38;;;0.90;99.90;;;;;;5007752;22;49602;-81
2022/01/10 04:02:35;;;;;;;67.18;17.38;;;0.90;99.90;;;;;;5009593;28;20050;-81
2022/01/10 04:05:02;;;;;;;59.45;16.92;;;0.90;99.90;;;;;;4989850;28;45712;-81
2022/01/10 04:07:28;;;;;;;56.88;16.90;;;0.90;99.90;;;;;;5017717;28;20054;-82
2022/01/10 04:09:54;;;;;;;64.25;16.80;;;0.90;99.90;;;;;;5004713;28;133705;-81
2022/01/10 04:12:21;;;;;;;48.15;15.90;;;0.80;99.90;;;;;;5021926;28;20499;-82
2022/01/10 04:14:47;;;;;;;50.28;15.80;;;0.70;99.90;;;;;;5011429;28;141608;-81
2022/01/10 04:17:13;;;;;;;51.03;15.02;;;0.70;99.90;;;;;;5008568;28;20915;-81
2022/01/10 04:19:40;;;;;;;49.30;14.95;;;0.60;99.90;;;;;;5007512;28;100675;-81
2022/01/10 04:22:06;;;;;;;51.08;16.35;;;0.60;99.90;;;;;;5017231;28;20069;-81
2022/01/10 04:24:32;;;;;;;54.33;17.50;;;0.50;99.90;;;;;;5008406;28;125817;-82
2022/01/10 04:26:58;;;;;;;52.63;16.90;;;0.50;99.90;;;;;;5019539;28;20532;-81
2022/01/10 04:29:24;;;;;;;62.10;17.70;;;0.50;99.90;;;;;;5004886;28;221355;-81
2022/01/10 04:31:51;;;;;;;66.60;16.95;;;0.50;99.90;;;;;;5007516;28;20065;-81
2022/01/10 04:34:17;;;;;;;57.05;16.35;;;0.50;99.90;;;;;;5016738;28;20057;-81
2022/01/10 04:36:43;;;;;;;50.95;17.10;;;0.50;99.90;;;;;;5032036;28;20061;-81
2022/01/10 04:39:09;;;;;;;70.55;18.95;;;0.50;99.90;;;;;;4993953;28;166838;-82
2022/01/10 04:41:37;;;;;;;60.42;18.45;;;0.50;99.90;;;;;;5014764;28;20064;-81
2022/01/10 04:44:04;;;;;;;80.63;19.55;;;0.50;99.90;;;;;;5008503;28;151843;-82
2022/01/10 04:46:30;;;;;;;49.40;18.23;;;0.50;99.90;;;;;;5018628;28;20457;-81
2022/01/10 04:48:56;;;;;;;69.13;20.15;;;0.50;99.90;;;;;;4988344;28;268548;-81
2022/01/10 04:51:23;;;;;;;72.65;21.75;;;0.50;99.90;;;;;;5006053;28;20049;-81
2022/01/10 04:53:51;;;;;;;62.97;20.48;;;0.50;99.90;;;;;;5005885;28;252517;-81
2022/01/10 04:56:19;;;;;;;68.10;21.58;;;0.60;99.90;;;;;;5020800;28;20426;-82
2022/01/10 04:58:46;;;;;;;63.95;20.83;;;0.60;99.90;;;;;;5007128;28;260522;-81
2022/01/10 05:01:14;;;;;;;75.75;23.58;;;0.60;99.90;;;;;;5015724;28;20049;-81
2022/01/10 05:03:40;;;;;;;65.80;22.02;;;0.60;99.90;;;;;;4987474;28;272478;-80
2022/01/10 05:06:06;;;;;;;67.13;22.73;;;0.60;99.90;;;;;;5018353;28;20782;-81
2022/01/10 05:08:33;;;;;;;75.43;23.38;;;0.60;99.90;;;;;;5021088;28;20069;-81
2022/01/10 05:10:59;;;;;;;76.38;23.40;;;0.60;99.90;;;;;;5007478;28;93537;-82
2022/01/10 05:13:26;;;;;;;63.20;23.33;;;0.60;99.90;;;;;;5046255;28;20044;-82
2022/01/10 05:15:53;;;;;;;73.85;24.23;;;0.60;99.90;;;;;;5017424;28;97360;-81
2022/01/10 05:18:21;;;;;;;67.70;24.67;;;0.60;99.90;;;;;;5042460;28;20041;-81
2022/01/10 05:20:48;;;;;;;79.18;25.30;;;0.60;99.90;;;;;;5021471;28;181122;-81
2022/01/10 05:23:15;;;;;;;77.50;25.95;;;0.60;99.90;;;;;;5043982;28;20057;-81
2022/01/10 05:25:41;;;;;;;78.47;24.83;;;0.60;99.90;;;;;;5015203;28;20294;-81
2022/01/10 05:28:09;;;;;;;72.68;26.33;;;0.60;99.90;;;;;;5044182;28;20060;-82
2022/01/10 05:30:39;;;;;;;82.40;25.95;;;0.60;99.90;;;;;;5019143;28;51512;-81
2022/01/10 05:33:07;;;;;;;79.15;26.60;;;0.60;99.90;;;;;;5049405;28;20052;-81
2022/01/10 05:35:39;;;;;;;74.00;26.70;;;0.60;99.90;;;;;;5034401;28;25317;-81
2022/01/10 05:38:05;;;;;;;69.38;25.58;;;0.60;99.90;;;;;;5044667;28;20508;-81
2022/01/10 05:40:31;;;;;;;68.32;26.63;;;0.50;99.90;;;;;;5035776;28;39590;-80
2022/01/10 05:42:57;;;;;;;65.13;26.92;;;0.60;99.90;;;;;;5043381;28;20053;-81
2022/01/10 05:45:24;;;;;;;78.68;26.98;;;0.50;99.90;;;;;;5021135;28;244985;-81
2022/01/10 05:47:50;;;;;;;67.07;26.65;;;0.50;99.90;;;;;;5039780;28;20052;-82
2022/01/10 05:50:20;;;;;;;86.00;28.92;;;0.50;99.90;;;;;;5031898;28;91985;-82
2022/01/10 05:52:46;;;;;;;62.28;24.52;;;0.50;99.90;;;;;;5029009;28;20049;-81
2022/01/10 05:55:13;;;;;;;68.45;26.27;;;0.40;99.90;;;;;;5028081;28;200715;-81
2022/01/10 05:57:39;;;;;;;60.67;25.58;;;0.40;99.90;;;;;;5044848;28;20049;-80
2022/01/10 06:00:07;;;;;;;68.40;27.73;;;0.40;99.90;;;;;;5029030;28;118182;-81
2022/01/10 06:02:33;;;;;;;70.03;26.45;;;0.40;99.90;;;;;;5040513;28;20064;-80
2022/01/10 06:05:02;;;;;;;69.07;26.98;;;0.40;99.90;;;;;;5012914;28;180583;-79
2022/01/10 06:07:28;;;;;;;68.68;28.20;;;0.40;99.90;;;;;;5039579;28;20049;-80
2022/01/10 06:09:54;;;;;;;77.78;30.50;;;0.30;99.90;;;;;;5029435;28;208409;-80
2022/01/10 06:12:20;;;;;;;72.82;29.05;;;0.30;99.90;;;;;;5045272;28;20041;-80
2022/01/10 06:14:47;;;;;;;79.60;31.02;;;0.30;99.90;;;;;;5037259;28;162419;-80
2022/01/10 06:17:13;;;;;;;91.03;33.83;;;0.30;99.90;;;;;;5029759;28;20402;-80
2022/01/10 06:19:41;;;;;;;89.07;35.17;;;0.30;99.90;;;;;;5032577;28;144197;-80
2022/01/10 06:22:07;;;;;;;100.40;34.92;;;0.40;99.90;;;;;;5040849;28;20056;-81
2022/01/10 06:24:33;;;;;;;93.30;35.70;;;0.40;99.90;;;;;;5027895;28;228508;-80
2022/01/10 06:26:59;;;;;;;82.38;34.95;;;0.50;99.90;;;;;;5036813;28;20060;-80
2022/01/10 06:29:25;;;;;;;104.70;37.15;;;0.40;99.90;;;;;;5026189;28;125513;-81
2022/01/10 06:31:51;;;;;;;93.00;33.47;;;0.50;99.90;;;;;;5026049;28;20041;-81
2022/01/10 06:34:18;;;;;;;86.13;34.30;;;0.40;99.90;;;;;;5025185;28;217907;-80
2022/01/10 06:36:45;;;;;;;77.32;31.90;;;0.40;99.90;;;;;;5020844;28;20501;-81
2022/01/10 06:39:12;;;;;;;82.22;31.88;;;0.40;99.90;;;;;;5031247;28;38768;-81
2022/01/10 06:41:38;;;;;;;68.63;29.50;;;0.30;99.90;;;;;;5020142;28;20061;-81
2022/01/10 06:44:04;;;;;;;78.28;31.58;;;0.30;99.90;;;;;;5020850;28;255950;-81
2022/01/10 06:46:30;;;;;;;68.45;30.45;;;0.20;99.90;;;;;;5034568;28;20048;-81
2022/01/10 06:48:56;;;;;;;86.35;33.63;;;0.20;99.90;;;;;;5023004;28;258599;-80
2022/01/10 06:51:22;;;;;;;87.20;34.95;;;0.10;99.90;;;;;;5041874;28;20053;-80
2022/01/10 06:53:48;;;;;;;87.32;35.47;;;0.20;99.90;;;;;;5025661;28;249867;-81
2022/01/10 06:56:15;;;;;;;90.30;33.15;;;0.20;99.90;;;;;;5038871;28;20517;-81
2022/01/10 06:58:41;;;;;;;77.30;31.97;;;0.20;99.90;;;;;;5005741;28;264444;-81
2022/01/10 07:01:07;;;;;;;82.15;31.33;;;0.20;99.90;;;;;;5018566;28;20052;-81
2022/01/10 07:03:37;;;;;;;72.63;29.60;;;0.10;99.90;;;;;;5036247;28;20490;-82
2022/01/10 07:06:03;;;;;;;73.55;31.13;;;0.10;99.90;;;;;;4999060;28;167590;-80
2022/01/10 07:08:29;;;;;;;70.38;29.50;;;0.00;99.90;;;;;;5042026;28;20379;-80
2022/01/10 07:10:56;;;;;;;66.30;29.65;;;0.00;99.90;;;;;;5029642;28;88117;-80
2022/01/10 07:13:24;;;;;;;70.13;28.17;;;-0.10;99.90;;;;;;5031868;28;20390;-80
2022/01/10 07:15:53;;;;;;;68.53;29.90;;;-0.10;99.90;;;;;;5026625;28;20044;-79
2022/01/10 07:18:19;;;;;;;63.83;27.02;;;-0.20;99.90;;;;;;5031616;28;20061;-79
2022/01/10 07:20:47;;;;;;;64.03;27.67;;;-0.20;99.90;;;;;;5023719;28;34575;-79
2022/01/10 07:23:16;;;;;;;61.47;26.70;;;-0.20;99.90;;;;;;5049442;28;20057;-80
2022/01/10 07:25:43;;;;;;;64.43;29.23;;;-0.20;99.90;;;;;;5010408;28;202350;-79
2022/01/10 07:28:09;;;;;;;68.50;29.42;;;-0.30;99.90;;;;;;5043082;28;20060;-79
2022/01/10 07:30:35;;;;;;;70.70;30.10;;;-0.30;99.90;;;;;;5019475;28;235735;-79
2022/01/10 07:33:02;;;;;;;65.03;28.95;;;-0.30;99.90;;;;;;5049206;28;20044;-79
2022/01/10 07:35:28;;;;;;;76.28;29.17;;;-0.30;99.90;;;;;;5024907;28;129417;-78
2022/01/10 07:37:55;;;;;;;65.28;27.77;;;-0.30;99.90;;;;;;5032407;28;20057;-79
2022/01/10 07:40:22;;;;;;;80.80;29.52;;;-0.40;99.90;;;;;;5040205;28;20048;-80
2022/01/10 07:42:52;;;;;;;71.88;29.98;;;-0.40;99.90;;;;;;5045163;28;20116;-80
2022/01/10 07:45:18;;;;;;;63.43;26.67;;;-0.40;99.90;;;;;;5046270;28;80195;-80
2022/01/10 07:47:45;;;;;;;71.90;29.08;;;-0.50;99.90;;;;;;5042104;28;20049;-80
2022/01/10 07:50:11;;;;;;;76.47;30.02;;;-0.50;99.90;;;;;;5027973;28;62437;-81
2022/01/10 07:52:37;;;;;;;76.25;29.00;;;-0.50;99.90;;;;;;5035580;28;20057;-80
2022/01/10 07:55:04;;;;;;;70.22;30.85;;;-0.50;99.90;;;;;;5035960;28;20048;-80
2022/01/10 07:57:30;;;;;;;70.32;30.48;;;-0.50;99.90;;;;;;5041708;28;20056;-80
2022/01/10 07:59:56;;;;;;;77.75;30.33;;;-0.50;99.90;;;;;;5030463;28;116408;-80
2022/01/10 08:02:24;;;;;;;72.22;30.77;;;-0.50;99.90;;;;;;5039099;28;20076;-80
2022/01/10 08:04:50;;;;;;;64.88;28.95;;;-0.50;99.90;;;;;;4996838;28;146525;-80
2022/01/10 08:07:16;;;;;;;65.22;29.42;;;-0.60;99.90;;;;;;5031583;28;20063;-80
2022/01/10 08:09:42;;;;;;;65.72;29.42;;;-0.50;99.90;;;;;;5030557;28;134375;-81
2022/01/10 08:12:09;;;;;;;64.80;28.95;;;-0.60;99.90;;;;;;5051124;28;20060;-81
2022/01/10 08:14:35;;;;;;;64.72;29.50;;;-0.60;99.90;;;;;;5037196;28;127323;-81
2022/01/10 08:17:02;;;;;;;60.10;28.15;;;-0.60;99.90;;;;;;5048819;28;20067;-82
2022/01/10 08:19:30;;;;;;;62.63;29.63;;;-0.60;99.90;;;;;;5032919;28;166620;-81
2022/01/10 08:21:57;;;;;;;68.75;28.30;;;-0.60;99.90;;;;;;5043178;28;20062;-81
2022/01/10 08:24:24;;;;;;;72.82;32.03;;;-0.60;99.90;;;;;;5029760;28;20480;-81
2022/01/10 08:26:52;;;;;;;78.55;33.25;;;-0.60;99.90;;;;;;5037077;28;20053;-81
2022/01/10 08:29:19;;;;;;;69.25;33.83;;;-0.60;99.90;;;;;;5025041;28;121335;-80
2022/01/10 08:31:45;;;;;;;76.18;31.90;;;-0.60;99.90;;;;;;5039631;28;20473;-81
2022/01/10 08:34:12;;;;;;;67.45;30.90;;;-0.60;99.90;;;;;;5015290;28;46415;-81
2022/01/10 08:36:38;;;;;;;84.00;34.63;;;-0.60;99.90;;;;;;5036467;28;20049;-81
2022/01/10 08:39:06;;;;;;;69.88;34.95;;;-0.60;99.90;;;;;;5027375;28;143184;-81
2022/01/10 08:41:35;;;;;;;83.95;37.05;;;-0.50;99.90;;;;;;5034435;28;20049;-81
2022/01/10 08:44:04;;;;;;;80.25;37.03;;;-0.50;99.90;;;;;;5007144;28;203499;-81
2022/01/10 08:46:30;;;;;;;75.82;36.38;;;-0.50;99.90;;;;;;5026389;28;20053;-82
2022/01/10 08:48:56;;;;;;;85.38;37.67;;;-0.50;99.90;;;;;;5007747;28;265406;-82
2022/01/10 08:51:24;;;;;;;86.32;37.63;;;-0.40;99.90;;;;;;5040184;28;20485;-81
2022/01/10 08:53:51;;;;;;;98.27;40.37;;;-0.40;99.90;;;;;;5022339;28;257383;-81
2022/01/10 08:56:17;;;;;;;91.68;38.75;;;-0.40;99.90;;;;;;5039458;28;20067;-82
2022/01/10 08:58:43;;;;;;;120.00;47.15;;;-0.40;99.90;;;;;;5020910;28;254118;-80
2022/01/10 09:01:09;;;;;;;128.50;48.17;;;-0.30;99.90;;;;;;5034240;28;20056;-81
2022/01/10 09:03:37;;;;;;;130.70;50.47;;;-0.20;99.90;;;;;;5026878;28;264989;-81
2022/01/10 09:06:03;;;;;;;125.60;50.00;;;-0.10;99.90;;;;;;5018658;28;153133;-81
2022/01/10 09:08:35;;;;;;;137.35;50.63;;;0.00;99.90;;;;;;5042587;28;20048;-80
2022/01/10 09:11:03;;;;;;;121.65;47.17;;;0.00;99.90;;;;;;5018913;28;20041;-81
2022/01/10 09:13:29;;;;;;;121.97;50.20;;;0.10;99.90;;;;;;5048187;28;20068;-81
2022/01/10 09:16:02;;;;;;;152.15;51.97;;;0.20;99.90;;;;;;5024941;28;277371;-81
2022/01/10 09:18:29;;;;;;;131.02;48.58;;;0.20;99.90;;;;;;5043602;28;20131;-81
2022/01/10 09:20:55;;;;;;;138.65;50.40;;;0.30;99.90;;;;;;5040501;28;20493;-82
2022/01/10 09:23:23;;;;;;;129.30;51.83;;;0.30;99.90;;;;;;5020855;28;20052;-80
2022/01/10 09:25:49;;;;;;;121.28;47.72;;;0.30;99.90;;;;;;5019850;28;190705;-81
2022/01/10 09:28:16;;;;;;;111.18;46.58;;;0.40;99.90;;;;;;5037726;28;20414;-80
2022/01/10 09:30:42;;;;;;;118.28;47.65;;;0.30;99.90;;;;;;5028141;28;252753;-81
2022/01/10 09:33:08;;;;;;;108.60;45.78;;;0.40;99.90;;;;;;5045248;28;20050;-82
2022/01/10 09:35:35;;;;;;;128.65;48.20;;;0.40;99.90;;;;;;5023833;28;230375;-80
2022/01/10 09:38:01;;;;;;;119.68;45.88;;;0.40;99.90;;;;;;5036574;28;20044;-81
2022/01/10 09:40:27;;;;;;;124.40;48.33;;;0.40;99.90;;;;;;5007992;28;56955;-81
2022/01/10 09:42:53;;;;;;;118.95;49.17;;;0.40;99.90;;;;;;5038222;28;20058;-82
2022/01/10 09:45:20;;;;;;;128.18;49.78;;;0.50;99.90;;;;;;5028137;28;20067;-82
2022/01/10 09:47:46;;;;;;;136.45;48.53;;;0.50;99.90;;;;;;5018805;28;20052;-82
2022/01/10 09:50:16;;;;;;;133.45;50.58;;;0.50;99.90;;;;;;5026194;28;49601;-81
2022/01/10 09:52:45;;;;;;;124.50;49.80;;;0.60;99.90;;;;;;5039577;28;20053;-81
2022/01/10 09:55:12;;;;;;;126.57;51.03;;;0.60;99.90;;;;;;5027950;28;96277;-81
2022/01/10 09:57:38;;;;;;;148.05;57.80;;;0.60;99.90;;;;;;5036448;28;20053;-80
2022/01/10 10:00:07;;;;;;;134.35;56.72;;;0.70;99.90;;;;;;5021961;28;180229;-81
2022/01/10 10:02:35;;;;;;;157.00;56.33;;;0.70;99.90;;;;;;5043306;28;20033;-80
2022/01/10 10:05:06;;;;;;;161.43;57.45;;;0.80;99.90;;;;;;4995906;28;180929;-80
2022/01/10 10:07:36;;;;;;;158.00;56.38;;;0.90;99.90;;;;;;5023641;28;20079;-80
2022/01/10 10:10:08;;;;;;;148.65;59.13;;;0.90;99.90;;;;;;5020788;28;104227;-79
2022/01/10 10:12:37;;;;;;;169.40;62.15;;;1.00;99.90;;;;;;5037779;28;20060;-80
2022/01/10 10:15:06;;;;;;;159.73;63.83;;;1.10;99.90;;;;;;5024768;28;154400;-81
2022/01/10 10:17:33;;;;;;;171.68;63.28;;;1.10;99.90;;;;;;5038315;28;20053;-82
2022/01/10 10:20:16;;;;;;;156.45;60.70;;;1.20;99.90;;;;;;5006666;28;217487;-80
2022/01/10 10:22:45;;;;;;;139.00;56.15;;;1.20;99.90;;;;;;5041576;28;20060;-82
2022/01/10 10:25:12;;;;;;;148.75;60.83;;;1.20;99.90;;;;;;5034433;28;252923;-82
2022/01/10 10:27:41;;;;;;;157.10;62.42;;;1.20;99.90;;;;;;5036582;28;20061;-82
2022/01/10 10:30:18;;;;;;;164.32;58.35;;;1.30;99.90;;;;;;5028202;28;173373;-81
2022/01/10 10:32:45;;;;;;;144.80;61.05;;;1.20;99.90;;;;;;5034996;28;20053;-80
2022/01/10 10:35:11;;;;;;;171.68;65.93;;;1.30;99.90;;;;;;5039765;28;130900;-80
2022/01/10 10:37:40;;;;;;;190.65;66.72;;;1.30;99.90;;;;;;5034574;28;20060;-79
2022/01/10 10:40:10;;;;;;;189.57;66.40;;;1.40;99.90;;;;;;5022585;28;20059;-80
2022/01/10 10:42:41;;;;;;;157.55;64.05;;;1.50;99.90;;;;;;5033178;28;20058;-80
2022/01/10 10:45:10;;;;;;;176.73;65.93;;;1.50;99.90;;;;;;5027074;28;88503;-81
2022/01/10 10:47:38;;;;;;;157.77;65.10;;;1.60;99.90;;;;;;5039542;28;20064;-81
2022/01/10 10:50:06;;;;;;;177.63;69.95;;;1.60;99.90;;;;;;5017743;28;189907;-82
2022/01/10 10:52:35;;;;;;;168.82;69.70;;;1.70;99.90;;;;;;5021231;28;20053;-81
2022/01/10 10:55:05;;;;;;;164.20;66.15;;;1.80;99.90;;;;;;5035577;28;257682;-83
2022/01/10 10:57:32;;;;;;;183.85;71.22;;;1.80;99.90;;;;;;5038689;28;20524;-80
2022/01/10 11:00:08;;;;;;;188.52;73.63;;;1.90;99.90;;;;;;5025972;28;233346;-80
2022/01/10 11:02:34;;;;;;;201.27;73.13;;;2.00;99.90;;;;;;5046051;28;20052;-80
2022/01/10 11:05:04;;;;;;;170.35;69.65;;;2.00;99.90;;;;;;5020652;28;242313;-80
2022/01/10 11:07:33;;;;;;;173.75;72.95;;;2.10;99.90;;;;;;5043130;28;20061;-79
2022/01/10 11:10:00;;;;;;;168.52;71.30;;;2.10;99.90;;;;;;4998405;28;200778;-81
2022/01/10 11:12:28;;;;;;;182.90;72.43;;;2.20;99.90;;;;;;5036036;28;20379;-79
2022/01/10 11:14:56;;;;;;;179.00;71.07;;;2.20;99.90;;;;;;5012814;28;25746;-80
2022/01/10 11:17:22;;;;;;;172.13;70.90;;;2.30;99.90;;;;;;5019134;28;20068;-81
2022/01/10 11:20:12;;;;;;;179.82;71.65;;;2.30;99.90;;;;;;5025597;28;61467;-81
2022/01/10 11:22:43;;;;;;;169.95;69.55;;;2.40;99.90;;;;;;5035834;28;20064;-80
2022/01/10 11:25:20;;;;;;;179.32;75.85;;;2.50;99.90;;;;;;5025636;28;198322;-79
2022/01/10 11:27:47;;;;;;;196.13;77.22;;;2.60;99.90;;;;;;5037395;28;20068;-80
2022/01/10 11:30:26;;;;;;;174.77;74.28;;;2.60;99.90;;;;;;5017042;28;20056;-80
2022/01/10 11:32:57;;;;;;;143.77;67.55;;;2.60;99.90;;;;;;5023809;28;20057;-79
2022/01/10 11:35:32;;;;;;;161.73;72.15;;;2.70;99.90;;;;;;5032143;28;35860;-79
2022/01/10 11:37:59;;;;;;;162.32;74.75;;;2.80;99.90;;;;;;5038210;28;20438;-80
2022/01/10 11:40:26;;;;;;;147.43;72.22;;;2.90;99.90;;;;;;5017336;28;198000;-80
2022/01/10 11:42:56;;;;;;;167.38;74.80;;;3.00;99.90;;;;;;5034761;28;20153;-82
2022/01/10 11:45:22;;;;;;;158.45;73.40;;;3.10;99.90;;;;;;5017071;28;200089;-80
2022/01/10 11:48:07;;;;;;;153.70;73.97;;;3.20;99.90;;;;;;5032011;28;20237;-80
2022/01/10 11:50:33;;;;;;;149.38;72.45;;;3.40;99.90;;;;;;5049631;28;109989;-82
2022/01/10 11:53:03;;;;;;;182.18;81.70;;;3.50;99.90;;;;;;5043882;28;20597;-80
2022/01/10 11:55:38;;;;;;;149.45;73.00;;;3.50;99.90;;;;;;5022109;28;198858;-80
2022/01/10 11:58:24;;;;;;;187.00;80.75;;;3.60;99.90;;;;;;5036621;28;20164;-81
2022/01/10 12:01:03;;;;;;;159.95;75.47;;;3.60;99.90;;;;;;5016807;28;140083;-81
2022/01/10 12:03:31;;;;;;;151.52;69.68;;;3.60;99.90;;;;;;5033238;28;20060;-82
2022/01/10 12:05:57;;;;;;;145.73;68.38;;;3.60;99.90;;;;;;4998854;28;222654;-81
2022/01/10 12:08:23;;;;;;;151.10;68.93;;;3.60;99.90;;;;;;5035395;28;20057;-81
2022/01/10 12:10:50;;;;;;;131.57;66.00;;;3.60;99.90;;;;;;5023529;28;110249;-81
2022/01/10 12:13:16;;;;;;;129.82;65.53;;;3.60;99.90;;;;;;5058085;28;20056;-81
2022/01/10 12:15:42;;;;;;;149.57;69.18;;;3.80;99.90;;;;;;5044086;28;137743;-81
2022/01/10 12:18:09;;;;;;;146.15;69.85;;;3.90;99.90;;;;;;5063054;28;20059;-81
2022/01/10 12:20:35;;;;;;;133.90;67.88;;;4.00;99.90;;;;;;5046759;28;20099;-81
2022/01/10 12:23:02;;;;;;;574.78;101.85;;;4.00;99.90;;;;;;5026753;28;20052;-81
2022/01/10 12:25:28;;;;;;;1999.90;343.45;;;4.60;99.90;;;;;;5029255;28;29498;-81
2022/01/10 12:27:57;;;;;;;1999.90;569.58;;;6.10;99.90;;;;;;5032270;28;20521;-82
2022/01/10 12:30:25;;;;;;;1999.90;287.02;;;7.60;99.90;;;;;;5022692;28;223884;-81
2022/01/10 12:32:52;;;;;;;1999.90;702.47;;;9.10;99.90;;;;;;5044476;28;20060;-83
2022/01/10 12:35:19;;;;;;;1999.90;450.95;;;10.30;99.90;;;;;;5020569;28;250185;-82
2022/01/10 12:37:46;;;;;;;1645.30;232.20;;;11.20;99.90;;;;;;5039582;28;20075;-82